This is the latest recevied weather packets stored in our database for station/object KE7JVX-3. If no packets are shown the sender has not sent any weather packets the latest 1 day(s).
| Time | Temp. | Humidity | Pressure | Rain* | Wind** | Luminosity | Snow |
|---|---|---|---|---|---|---|---|
| 1778022567 | 3.89° C | 47% | 1006 hPa | 0 mm | 12.07 m/s, 258° | - | - |
| 1778021967 | 3.89° C | 50% | 1006.1 hPa | 0 mm | 10.73 m/s, 253° | - | - |
| 1778021370 | 5° C | 52% | 1006 hPa | 0 mm | 11.18 m/s, 250° | - | - |
| 1778020767 | 4.44° C | 53% | 1006.1 hPa | 0 mm | 11.18 m/s, 255° | - | - |
| 1778020167 | 3.89° C | 56% | 1006.2 hPa | 0 mm | 9.83 m/s, 258° | - | - |
| 1778019566 | 3.33° C | 67% | 1006.2 hPa | 0 mm | 9.39 m/s, 252° | - | - |
| 1778018967 | 2.78° C | 76% | 1006.4 hPa | 0 mm | 7.6 m/s, 250° | - | - |
| 1778018368 | 3.33° C | 78% | 1006.4 hPa | 0 mm | 11.18 m/s, 258° | - | - |
| 1778017767 | 2.78° C | 79% | 1006.5 hPa | 0 mm | 8.94 m/s, 258° | - | - |
| 1778017167 | 2.22° C | 79% | 1006.6 hPa | 0 mm | 8.94 m/s, 260° | - | - |
| 1778016568 | 2.22° C | 79% | 1006.6 hPa | 0 mm | 9.83 m/s, 257° | - | - |
| 1778015967 | 2.22° C | 79% | 1006.8 hPa | 0 mm | 9.39 m/s, 247° | - | - |
| 1778015366 | 2.22° C | 79% | 1006.8 hPa | 0 mm | 9.39 m/s, 271° | - | - |
| 1778014768 | 2.22° C | 79% | 1007 hPa | 0 mm | 8.94 m/s, 256° | - | - |
| 1778014167 | 2.22° C | 79% | 1006.8 hPa | 0 mm | 9.39 m/s, 248° | - | - |
| 1778013567 | 2.22° C | 79% | 1007 hPa | 0 mm | 8.49 m/s, 251° | - | - |
| 1778012968 | 2.78° C | 79% | 1006.9 hPa | 0 mm | 10.28 m/s, 256° | - | - |
| 1778012366 | 2.78° C | 79% | 1006.9 hPa | 0 mm | 10.73 m/s, 248° | - | - |
| 1778011766 | 2.78° C | 79% | 1007 hPa | 0 mm | 8.49 m/s, 252° | - | - |
| 1778011166 | 2.78° C | 79% | 1007 hPa | 0 mm | 9.83 m/s, 258° | - | - |
| 1778010566 | 2.78° C | 79% | 1007.1 hPa | 0 mm | 10.28 m/s, 254° | - | - |
| 1778009967 | 2.78° C | 79% | 1007.1 hPa | 0 mm | 9.83 m/s, 257° | - | - |
| 1778009367 | 2.22° C | 79% | 1006.9 hPa | 0 mm | 8.94 m/s, 249° | - | - |
| 1778008767 | 2.22° C | 79% | 1007.2 hPa | 0 mm | 10.28 m/s, 262° | - | - |
| 1778008166 | 2.78° C | 79% | 1007.2 hPa | 0 mm | 9.83 m/s, 255° | - | - |
* Rain latest hour (hover to see other rain measurements)
** Current wind speed in m/s (hover to see current wind gust speed)